Time;durP1;ratioP1;P1;durP2;ratioP2;P2;SDS_P1;SDS_P2;PMS_P1;PMS_P2;Temp;Humidity;BMP_temperature;BMP_pressure;BME280_temperature;BME280_humidity;BME280_pressure;Samples;Min_cycle;Max_cycle;Signal;HPM_P1;HPM_P2
2024/03/24 00:02:47;;;;;;;4.73;3.27;;;;;;;4.22;81.47;96889.81;6275358;28;20187;-55
2024/03/24 00:05:48;;;;;;;4.37;2.63;;;;;;;4.21;82.91;96906.66;6290849;28;20192;-59
2024/03/24 00:08:51;;;;;;;3.27;2.87;;;;;;;4.03;82.89;96915.34;6296948;28;20663;-58
2024/03/24 00:11:53;;;;;;;4.37;2.97;;;;;;;4.22;82.07;96916.16;6292382;28;20210;-57
2024/03/24 00:14:54;;;;;;;3.57;2.80;;;;;;;3.96;81.28;96907.53;6307556;28;20650;-58
2024/03/24 00:17:56;;;;;;;3.20;2.83;;;;;;;4.27;78.68;96943.47;6290820;28;21144;-59
2024/03/24 00:20:58;;;;;;;2.73;2.50;;;;;;;4.37;77.92;96924.50;6294102;28;20203;-58
2024/03/24 00:24:03;;;;;;;3.63;2.40;;;;;;;4.32;77.06;96921.72;6298728;28;20187;-58
2024/03/24 00:27:05;;;;;;;2.83;2.17;;;;;;;4.42;76.54;96915.94;6295431;28;20210;-58
2024/03/24 00:30:07;;;;;;;4.67;2.70;;;;;;;4.18;81.18;96921.06;6293031;28;20202;-56
2024/03/24 00:33:08;;;;;;;4.73;2.60;;;;;;;4.24;79.38;96929.94;6299007;28;21079;-58
2024/03/24 00:36:09;;;;;;;3.50;2.33;;;;;;;4.15;80.82;96942.59;6303586;28;20190;-58
2024/03/24 00:39:11;;;;;;;5.73;3.00;;;;;;;3.99;84.75;96929.97;6295549;28;20194;-57
2024/03/24 00:42:12;;;;;;;4.40;2.63;;;;;;;3.86;85.58;96944.91;6296932;28;20233;-59
2024/03/24 00:45:13;;;;;;;3.73;2.43;;;;;;;3.71;86.47;96946.28;6310543;28;20203;-59
2024/03/24 00:48:15;;;;;;;3.40;2.50;;;;;;;3.75;86.42;96943.00;6300796;28;20189;-58
2024/03/24 00:51:16;;;;;;;2.87;2.40;;;;;;;3.87;85.68;96946.50;6295351;28;20202;-59
2024/03/24 00:54:17;;;;;;;2.70;2.50;;;;;;;3.89;85.85;96943.66;6294483;28;20214;-58
2024/03/24 00:57:18;;;;;;;2.53;2.27;;;;;;;3.77;86.13;96930.41;6296095;28;20230;-56
2024/03/24 01:00:19;;;;;;;2.83;2.33;;;;;;;3.87;87.25;96929.91;6295525;28;20593;-57
2024/03/24 01:03:21;;;;;;;2.60;2.27;;;;;;;3.92;85.72;96910.81;6301022;28;20242;-58
2024/03/24 01:06:24;;;;;;;2.80;2.00;;;;;;;3.77;88.27;96908.53;6297387;28;20195;-57
2024/03/24 01:09:25;;;;;;;4.53;2.30;;;;;;;3.92;87.40;96921.34;6300690;28;20676;-59
2024/03/24 01:12:26;;;;;;;3.77;2.37;;;;;;;3.83;84.45;96921.63;6294314;28;20210;-58
2024/03/24 01:15:29;;;;;;;2.37;1.80;;;;;;;3.78;85.55;96894.31;6298584;28;20243;-59
2024/03/24 01:18:32;;;;;;;3.07;2.13;;;;;;;4.08;82.82;96897.84;6294913;28;20223;-58
2024/03/24 01:21:34;;;;;;;2.63;2.40;;;;;;;4.17;80.83;96895.75;6291844;28;20249;-57
2024/03/24 01:24:36;;;;;;;3.10;2.70;;;;;;;4.27;82.16;96901.28;6301466;28;20206;-57
2024/03/24 01:27:37;;;;;;;4.40;3.40;;;;;;;4.18;80.31;96896.53;6297005;28;20264;-57
2024/03/24 01:30:39;;;;;;;4.87;3.87;;;;;;;4.18;80.09;96897.34;6290288;28;20199;-59
2024/03/24 01:33:47;;;;;;;4.47;3.67;;;;;;;4.31;79.63;96885.84;6301461;28;20202;-58
2024/03/24 01:36:51;;;;;;;3.53;3.10;;;;;;;4.27;79.91;96885.47;6291010;28;20195;-58
2024/03/24 01:39:52;;;;;;;5.00;3.43;;;;;;;4.23;85.23;96891.41;6298993;28;20202;-60
2024/03/24 01:42:54;;;;;;;5.20;3.50;;;;;;;4.18;79.66;96862.28;6298608;28;20222;-59
2024/03/24 01:45:55;;;;;;;5.17;3.87;;;;;;;4.55;77.82;96897.31;6290946;28;20569;-59
2024/03/24 01:48:57;;;;;;;3.70;3.23;;;;;;;4.46;79.74;96896.00;6292807;28;20187;-59
2024/03/24 01:51:58;;;;;;;4.40;3.40;;;;;;;4.36;82.37;96905.25;6296287;28;20260;-55
2024/03/24 01:55:00;;;;;;;3.30;3.00;;;;;;;4.30;81.42;96902.69;6297302;28;20190;-56
2024/03/24 01:58:03;;;;;;;4.10;3.30;;;;;;;4.42;80.00;96908.03;6276856;28;20693;-59
2024/03/24 02:01:06;;;;;;;5.37;3.07;;;;;;;4.33;83.50;96903.03;6291729;28;20194;-59
2024/03/24 02:04:10;;;;;;;5.17;3.07;;;;;;;4.08;82.27;96863.59;6277195;28;20540;-59
2024/03/24 02:07:12;;;;;;;3.33;2.43;;;;;;;4.24;83.04;96867.47;6300636;28;20198;-59
2024/03/24 02:10:16;;;;;;;2.17;1.97;;;;;;;4.23;82.46;96852.66;6293836;28;20193;-56
2024/03/24 02:13:18;;;;;;;2.80;2.20;;;;;;;4.35;82.11;96845.63;6271403;28;20245;-59
2024/03/24 02:16:19;;;;;;;3.50;1.87;;;;;;;4.28;83.48;96842.25;6293084;28;20193;-57
2024/03/24 02:19:20;;;;;;;2.70;1.73;;;;;;;4.12;85.60;96842.88;6301664;28;20712;-56
2024/03/24 02:22:22;;;;;;;2.10;1.70;;;;;;;4.21;84.00;96838.91;6293714;28;20715;-56
2024/03/24 02:25:23;;;;;;;2.23;1.43;;;;;;;4.25;84.76;96837.44;6288758;28;20202;-59
2024/03/24 02:28:24;;;;;;;2.33;1.20;;;;;;;4.28;83.96;96849.38;6303777;28;20196;-59
2024/03/24 02:31:25;;;;;;;2.73;1.13;;;;;;;4.36;83.14;96834.06;6306010;28;20241;-58
2024/03/24 02:34:27;;;;;;;1.80;1.20;;;;;;;4.33;84.62;96849.50;6295479;28;20887;-58
2024/03/24 02:37:29;;;;;;;1.50;1.00;;;;;;;4.17;85.86;96858.84;6292994;28;20664;-57
2024/03/24 02:40:30;;;;;;;2.23;1.23;;;;;;;4.22;84.02;96842.34;6297880;28;20744;-59
2024/03/24 02:43:33;;;;;;;1.90;1.20;;;;;;;4.24;84.09;96838.50;6295630;28;20682;-57
2024/03/24 02:46:34;;;;;;;3.10;1.20;;;;;;;4.26;84.02;96848.81;6291991;28;20187;-57
2024/03/24 02:49:36;;;;;;;1.63;0.80;;;;;;;4.21;84.62;96873.19;6265818;28;20190;-58
2024/03/24 02:52:37;;;;;;;1.10;0.90;;;;;;;4.14;86.77;96875.09;6302805;28;20205;-58
2024/03/24 02:55:47;;;;;;;1.60;1.20;;;;;;;4.17;83.85;96872.00;6291264;28;20902;-59
2024/03/24 02:58:48;;;;;;;2.70;1.10;;;;;;;4.36;83.64;96873.59;6277866;28;20197;-59
2024/03/24 03:01:50;;;;;;;2.70;1.07;;;;;;;4.28;84.19;96873.91;6290850;28;20186;-57
2024/03/24 03:04:51;;;;;;;3.33;1.00;;;;;;;4.29;82.96;96862.34;6290400;28;20189;-59
2024/03/24 03:07:54;;;;;;;1.33;1.20;;;;;;;4.37;82.48;96853.31;6290290;28;20212;-58
2024/03/24 03:10:58;;;;;;;1.43;1.10;;;;;;;4.27;82.87;96853.84;6291008;28;20194;-58
2024/03/24 03:13:59;;;;;;;3.13;1.20;;;;;;;4.17;84.24;96834.31;6293174;28;20206;-59
2024/03/24 03:17:00;;;;;;;1.97;1.50;;;;;;;4.44;82.19;96838.22;6294242;28;20208;-58
2024/03/24 03:20:04;;;;;;;3.03;1.30;;;;;;;4.49;81.49;96842.84;6290895;28;20230;-58
2024/03/24 03:23:05;;;;;;;2.50;1.30;;;;;;;4.43;83.93;96844.50;6280382;28;20742;-58
2024/03/24 03:26:06;;;;;;;1.87;1.33;;;;;;;4.36;82.99;96847.25;6291665;28;20194;-58
2024/03/24 03:29:08;;;;;;;2.50;1.10;;;;;;;4.40;81.49;96847.59;6291060;28;20221;-56
2024/03/24 03:32:09;;;;;;;2.87;0.97;;;;;;;4.41;81.69;96859.75;6289807;28;20206;-57
2024/03/24 03:35:10;;;;;;;1.50;1.10;;;;;;;4.38;82.00;96855.75;6295975;28;20194;-59
2024/03/24 03:38:11;;;;;;;1.43;1.10;;;;;;;4.43;81.26;96854.25;6301441;28;20194;-59
2024/03/24 03:41:14;;;;;;;2.37;1.20;;;;;;;4.48;80.76;96864.94;6294370;28;20608;-54
2024/03/24 03:44:15;;;;;;;1.83;1.10;;;;;;;4.44;80.83;96863.81;6294420;28;20182;-59
2024/03/24 03:47:18;;;;;;;1.30;1.10;;;;;;;4.29;82.88;96866.81;6295752;28;20221;-58
2024/03/24 03:50:20;;;;;;;2.83;0.93;;;;;;;4.13;86.31;96860.28;6294943;28;20194;-57
2024/03/24 03:53:24;;;;;;;4.27;1.43;;;;;;;4.09;82.27;96838.06;6295272;28;20209;-57
2024/03/24 03:56:26;;;;;;;2.40;1.43;;;;;;;4.19;81.68;96850.69;6287676;28;20203;-59
2024/03/24 03:59:27;;;;;;;1.43;1.20;;;;;;;4.16;81.49;96856.44;6291027;28;20206;-57
2024/03/24 04:02:28;;;;;;;3.60;1.43;;;;;;;4.24;82.25;96841.13;6301096;28;20208;-59
2024/03/24 04:05:29;;;;;;;2.07;1.53;;;;;;;4.28;80.17;96837.00;6287178;28;20247;-55
2024/03/24 04:08:30;;;;;;;2.00;1.67;;;;;;;4.34;79.70;96840.59;6293988;28;20240;-58
2024/03/24 04:11:31;;;;;;;3.53;1.30;;;;;;;4.32;79.64;96835.53;6301233;28;20198;-59
2024/03/24 04:14:33;;;;;;;2.30;1.33;;;;;;;4.36;78.82;96825.34;6296524;28;20960;-60
2024/03/24 04:17:34;;;;;;;2.30;1.20;;;;;;;4.27;81.03;96822.19;6297383;28;20226;-59
2024/03/24 04:20:37;;;;;;;3.10;1.40;;;;;;;4.21;81.80;96819.66;6303407;28;20384;-59
2024/03/24 04:23:38;;;;;;;2.60;1.40;;;;;;;4.26;79.65;96832.97;6297350;28;20185;-58
2024/03/24 04:26:39;;;;;;;1.00;0.90;;;;;;;4.23;80.91;96839.50;6303724;28;20303;-59
2024/03/24 04:29:41;;;;;;;2.03;1.00;;;;;;;4.40;77.30;96844.97;6306964;28;20189;-60
2024/03/24 04:32:43;;;;;;;1.33;1.03;;;;;;;4.39;77.31;96859.19;6284610;28;20268;-57
2024/03/24 04:35:46;;;;;;;2.30;1.30;;;;;;;4.38;79.03;96863.66;6295645;28;20203;-59
2024/03/24 04:38:47;;;;;;;3.70;1.20;;;;;;;4.41;77.25;96862.41;6303927;28;20182;-59
2024/03/24 04:41:49;;;;;;;3.23;1.20;;;;;;;4.41;78.42;96870.31;6312005;28;20296;-57
2024/03/24 04:44:50;;;;;;;2.03;1.27;;;;;;;4.29;80.75;96867.63;6308089;28;20181;-55
2024/03/24 04:47:51;;;;;;;1.23;1.10;;;;;;;4.23;82.16;96865.06;6308411;28;20210;-58
2024/03/24 04:50:58;;;;;;;1.73;1.00;;;;;;;3.98;83.28;96875.69;6316470;28;20287;-59
2024/03/24 04:53:59;;;;;;;1.60;1.13;;;;;;;3.77;80.75;96845.31;6299855;28;20206;-58
2024/03/24 04:57:00;;;;;;;2.10;1.07;;;;;;;4.10;75.97;96879.19;6311875;28;20197;-60
2024/03/24 05:00:07;;;;;;;2.27;1.00;;;;;;;4.06;77.87;96876.19;6304915;28;20229;-58
2024/03/24 05:03:09;;;;;;;3.77;1.03;;;;;;;4.29;75.59;96875.53;6307388;28;20244;-59
2024/03/24 05:06:10;;;;;;;1.57;0.90;;;;;;;4.26;75.80;96875.97;6318890;28;20181;-58
2024/03/24 05:09:14;;;;;;;2.27;1.20;;;;;;;3.99;79.97;96870.22;6314489;28;20213;-55
2024/03/24 05:12:15;;;;;;;3.30;1.40;;;;;;;3.84;81.06;96877.63;6299984;28;20204;-59
2024/03/24 05:15:18;;;;;;;4.33;1.03;;;;;;;3.70;80.99;96865.66;6305608;28;20208;-56
2024/03/24 05:18:21;;;;;;;2.00;1.20;;;;;;;3.54;82.56;96878.34;6294841;28;20260;-59
2024/03/24 05:21:23;;;;;;;1.63;1.10;;;;;;;3.46;85.46;96893.63;6305660;28;20710;-60
2024/03/24 05:24:28;;;;;;;2.50;1.07;;;;;;;3.44;82.26;96885.13;6299983;28;20193;-57
2024/03/24 05:27:30;;;;;;;2.33;0.93;;;;;;;3.43;82.29;96894.84;6298717;28;20691;-59
2024/03/24 05:30:32;;;;;;;2.90;0.80;;;;;;;3.36;83.58;96904.63;6293144;28;20202;-59
2024/03/24 05:33:35;;;;;;;3.53;0.90;;;;;;;3.62;81.24;96903.59;6294012;28;20206;-60
2024/03/24 05:36:36;;;;;;;1.10;0.87;;;;;;;3.60;83.17;96914.34;6295146;28;20199;-58
2024/03/24 05:39:37;;;;;;;1.83;0.67;;;;;;;3.58;81.88;96920.84;6290666;28;20193;-60
2024/03/24 05:42:39;;;;;;;1.97;0.87;;;;;;;3.43;84.43;96913.28;6300952;28;20277;-58
2024/03/24 05:45:40;;;;;;;3.90;1.10;;;;;;;3.47;82.41;96911.81;6270412;28;20236;-58
2024/03/24 05:48:43;;;;;;;0.80;0.50;;;;;;;3.83;79.02;96921.63;6290880;28;20295;-58
2024/03/24 05:51:46;;;;;;;1.37;0.57;;;;;;;3.86;78.52;96928.31;6291158;28;20196;-56
2024/03/24 05:54:47;;;;;;;2.47;0.73;;;;;;;3.79;79.42;96901.19;6291077;28;20190;-56
2024/03/24 05:57:49;;;;;;;6.90;1.13;;;;;;;4.24;78.48;96914.13;6302358;28;20233;-57
2024/03/24 06:00:50;;;;;;;1.43;0.80;;;;;;;4.21;79.16;96909.28;6293747;28;20187;-59
2024/03/24 06:03:52;;;;;;;2.77;0.90;;;;;;;4.47;76.27;96905.53;6294124;28;20203;-58
2024/03/24 06:06:53;;;;;;;1.60;0.87;;;;;;;4.52;74.66;96908.31;6291211;28;20718;-59
2024/03/24 06:09:55;;;;;;;1.93;0.90;;;;;;;4.47;74.81;96906.34;6291384;28;20192;-57
2024/03/24 06:12:56;;;;;;;1.37;0.50;;;;;;;4.79;73.17;96893.75;6295204;28;20247;-59
2024/03/24 06:15:58;;;;;;;2.47;1.00;;;;;;;4.77;73.55;96890.50;6303570;28;20204;-59
2024/03/24 06:19:00;;;;;;;1.47;0.80;;;;;;;4.71;75.91;96901.16;6277366;28;20673;-60
2024/03/24 06:22:01;;;;;;;1.83;0.70;;;;;;;4.77;71.56;96893.16;6289208;28;20188;-57
2024/03/24 06:25:05;;;;;;;4.90;0.77;;;;;;;4.86;72.73;96894.44;6296154;28;20190;-59
2024/03/24 06:28:06;;;;;;;1.93;0.67;;;;;;;5.03;69.99;96891.19;6287330;28;20205;-58
2024/03/24 06:31:08;;;;;;;1.33;0.60;;;;;;;4.96;73.15;96893.09;6291935;28;20202;-56
2024/03/24 06:34:09;;;;;;;1.00;0.90;;;;;;;5.04;70.27;96900.72;6290858;28;20202;-59
2024/03/24 06:37:10;;;;;;;1.60;0.57;;;;;;;5.08;69.01;96891.31;6292933;28;20192;-59
2024/03/24 06:40:12;;;;;;;2.53;0.60;;;;;;;5.18;70.13;96891.56;6302548;28;20200;-58
2024/03/24 06:43:30;;;;;;;1.77;0.70;;;;;;;5.40;70.33;96900.53;6295439;28;20192;-57
2024/03/24 06:46:32;;;;;;;0.87;0.50;;;;;;;5.38;69.41;96893.91;6293203;28;20195;-60
2024/03/24 06:49:34;;;;;;;1.20;0.67;;;;;;;5.37;70.18;96887.00;6287787;28;20694;-57
2024/03/24 06:52:35;;;;;;;3.13;0.70;;;;;;;5.19;68.32;96879.97;6292631;28;20623;-54
2024/03/24 06:55:36;;;;;;;2.50;0.90;;;;;;;5.15;67.53;96874.34;6292002;28;20187;-57
2024/03/24 06:58:37;;;;;;;1.00;0.80;;;;;;;5.15;69.21;96876.97;6292715;28;20201;-58
2024/03/24 07:01:40;;;;;;;0.67;0.57;;;;;;;5.22;70.70;96874.25;6289411;28;20190;-57
2024/03/24 07:04:41;;;;;;;2.80;1.00;;;;;;;4.96;69.91;96840.31;6296657;28;20573;-55
2024/03/24 07:07:42;;;;;;;1.73;0.80;;;;;;;5.25;70.30;96865.06;6289572;28;20273;-58
2024/03/24 07:10:51;;;;;;;1.93;0.67;;;;;;;5.24;70.88;96853.69;6293135;28;20195;-60
2024/03/24 07:13:53;;;;;;;3.53;0.70;;;;;;;5.60;68.04;96863.22;6290026;28;20292;-60
2024/03/24 07:16:55;;;;;;;1.30;0.80;;;;;;;5.61;68.97;96864.84;6299886;28;20192;-59
2024/03/24 07:19:56;;;;;;;0.70;0.60;;;;;;;5.74;71.60;96855.09;6298227;28;20233;-59
2024/03/24 07:22:58;;;;;;;1.40;0.60;;;;;;;5.92;67.94;96861.06;6293018;28;20216;-58
2024/03/24 07:25:59;;;;;;;1.27;0.77;;;;;;;6.05;66.19;96861.84;6290322;28;20194;-60
2024/03/24 07:29:00;;;;;;;2.47;0.80;;;;;;;6.16;65.46;96868.97;6291237;28;20290;-60
2024/03/24 07:32:02;;;;;;;1.73;0.63;;;;;;;6.42;65.16;96860.50;6294877;28;20283;-59
2024/03/24 07:35:05;;;;;;;1.87;0.83;;;;;;;6.69;66.38;96851.97;6291016;28;20758;-60
2024/03/24 07:38:07;;;;;;;2.00;0.70;;;;;;;6.86;64.36;96852.03;6288381;28;20192;-59
2024/03/24 07:41:09;;;;;;;2.40;0.80;;;;;;;6.54;64.90;96849.84;6288241;28;20201;-59
2024/03/24 07:44:11;;;;;;;2.03;0.60;;;;;;;6.59;64.94;96851.78;6293229;28;20595;-59
2024/03/24 07:47:13;;;;;;;1.87;0.90;;;;;;;6.67;66.66;96862.81;6294219;28;20187;-59
2024/03/24 07:50:18;;;;;;;0.97;0.50;;;;;;;6.83;63.82;96852.50;6293401;28;20193;-56
2024/03/24 07:53:19;;;;;;;1.17;0.67;;;;;;;6.60;65.39;96864.81;6287299;28;20226;-59
2024/03/24 07:56:20;;;;;;;1.97;0.77;;;;;;;6.57;67.03;96869.75;6296219;28;20185;-56
2024/03/24 07:59:22;;;;;;;1.43;0.73;;;;;;;6.06;66.54;96851.06;6293840;28;20684;-55
2024/03/24 08:02:24;;;;;;;2.00;0.80;;;;;;;6.09;66.69;96865.63;6287436;28;20198;-57
2024/03/24 08:05:25;;;;;;;3.17;0.70;;;;;;;6.18;66.95;96854.47;6289096;28;20658;-58
2024/03/24 08:08:26;;;;;;;1.50;0.90;;;;;;;6.17;67.19;96873.22;6291055;28;20255;-59
2024/03/24 08:11:27;;;;;;;0.40;0.30;;;;;;;6.14;68.03;96871.03;6290323;28;20201;-59
2024/03/24 08:14:28;;;;;;;1.07;0.70;;;;;;;6.36;66.43;96871.22;6295070;28;20205;-58
2024/03/24 08:17:29;;;;;;;1.50;0.47;;;;;;;6.49;67.47;96865.63;6295331;28;20194;-59
2024/03/24 08:20:31;;;;;;;1.70;0.40;;;;;;;6.76;66.90;96865.09;6296115;28;20201;-56
2024/03/24 08:23:32;;;;;;;0.83;0.40;;;;;;;6.24;66.61;96863.31;6295430;28;20190;-58
2024/03/24 08:26:34;;;;;;;1.60;0.70;;;;;;;6.26;69.28;96863.09;6296931;28;20203;-59
2024/03/24 08:29:38;;;;;;;0.53;0.50;;;;;;;6.15;68.61;96852.28;6299518;28;20292;-57
2024/03/24 08:32:39;;;;;;;2.57;0.60;;;;;;;6.30;68.51;96854.41;6294050;28;20205;-56
2024/03/24 08:35:40;;;;;;;0.73;0.40;;;;;;;6.65;67.47;96842.91;6300890;28;20292;-57
2024/03/24 08:38:42;;;;;;;0.70;0.50;;;;;;;6.76;68.53;96851.84;6291276;28;20193;-59
2024/03/24 08:41:43;;;;;;;1.13;0.60;;;;;;;6.46;66.71;96855.53;6296293;28;20193;-59
2024/03/24 08:44:45;;;;;;;3.47;0.80;;;;;;;6.35;68.20;96845.78;6291661;28;20192;-59
2024/03/24 08:47:46;;;;;;;1.40;0.40;;;;;;;6.51;70.08;96844.25;6307353;28;20281;-58
2024/03/24 08:50:47;;;;;;;0.83;0.30;;;;;;;6.75;70.58;96835.19;6295175;28;20201;-58
2024/03/24 08:53:48;;;;;;;1.17;0.43;;;;;;;7.01;66.08;96822.38;6283547;28;20221;-55
2024/03/24 08:56:49;;;;;;;0.53;0.30;;;;;;;7.12;66.54;96840.81;6295590;28;20220;-57
2024/03/24 08:59:54;;;;;;;1.57;0.40;;;;;;;7.16;66.04;96846.44;6302437;28;20193;-54
2024/03/24 09:02:57;;;;;;;1.90;0.40;;;;;;;7.28;65.12;96839.22;6291158;28;20270;-57
2024/03/24 09:05:58;;;;;;;0.63;0.37;;;;;;;6.76;65.30;96844.72;6294048;28;20258;-58
2024/03/24 09:09:00;;;;;;;1.20;0.50;;;;;;;6.65;67.02;96842.91;6293547;28;20648;-55
2024/03/24 09:12:02;;;;;;;0.97;0.50;;;;;;;6.41;67.69;96848.31;6292654;28;20563;-56
2024/03/24 09:15:06;;;;;;;1.13;0.27;;;;;;;6.37;66.21;96835.78;6294326;28;20202;-60
2024/03/24 09:18:10;;;;;;;0.73;0.30;;;;;;;6.78;67.66;96832.03;6297258;28;20236;-57
2024/03/24 09:21:14;;;;;;;0.40;0.30;;;;;;;7.10;64.43;96815.63;6300599;28;20271;-57
2024/03/24 09:24:19;;;;;;;2.10;0.50;;;;;;;7.69;64.42;96811.47;6300026;28;20180;-54
2024/03/24 09:27:25;;;;;;;0.37;0.20;;;;;;;7.90;63.45;96817.84;6308384;28;20197;-56
2024/03/24 09:30:26;;;;;;;2.00;0.37;;;;;;;7.97;61.05;96810.50;6310423;28;20196;-58
2024/03/24 09:33:27;;;;;;;1.50;0.40;;;;;;;7.71;57.21;96790.81;6306252;28;20196;-57
2024/03/24 09:36:29;;;;;;;0.40;0.40;;;;;;;7.66;59.74;96804.00;6303356;28;20206;-57
2024/03/24 09:39:30;;;;;;;0.53;0.30;;;;;;;7.82;58.53;96791.75;6300293;28;20775;-56
2024/03/24 09:42:40;;;;;;;0.50;0.40;;;;;;;7.89;61.16;96808.28;6298885;28;20210;-55
2024/03/24 09:45:54;;;;;;;1.30;0.33;;;;;;;8.20;61.29;96816.63;6291606;28;20293;-52
2024/03/24 09:49:17;;;;;;;0.70;0.33;;;;;;;8.30;55.95;96803.47;6299985;28;20182;-56
2024/03/24 09:52:44;;;;;;;0.40;0.40;;;;;;;8.41;55.92;96796.44;6299835;28;20217;-57
2024/03/24 09:55:54;;;;;;;0.43;0.30;;;;;;;8.79;55.97;96814.09;6298925;28;20205;-55
2024/03/24 09:59:03;;;;;;;0.73;0.30;;;;;;;8.74;55.08;96811.38;6307634;28;20217;-54
2024/03/24 10:02:10;;;;;;;0.40;0.40;;;;;;;8.76;53.81;96818.03;6300776;28;20234;-54
2024/03/24 10:05:15;;;;;;;0.30;0.30;;;;;;;8.72;54.91;96801.03;6295624;28;20200;-55
2024/03/24 10:08:25;;;;;;;0.37;0.37;;;;;;;8.71;54.51;96799.41;6300773;28;20185;-57
2024/03/24 10:11:32;;;;;;;0.80;0.40;;;;;;;8.45;54.87;96769.16;6304196;28;20178;-55
2024/03/24 10:14:35;;;;;;;0.20;0.20;;;;;;;8.86;56.30;96792.63;6303818;28;20214;-57
2024/03/24 10:17:36;;;;;;;0.33;0.33;;;;;;;8.66;53.50;96807.31;6272606;28;20228;-58
2024/03/24 10:20:39;;;;;;;0.33;0.33;;;;;;;8.03;55.12;96787.53;6280243;28;20265;-57
2024/03/24 10:23:41;;;;;;;0.40;0.40;;;;;;;8.15;55.42;96790.84;6305439;28;20182;-53
2024/03/24 10:26:43;;;;;;;1.70;0.50;;;;;;;8.17;57.29;96772.81;6282996;28;20569;-56
2024/03/24 10:29:45;;;;;;;0.53;0.30;;;;;;;8.32;56.05;96769.50;6297660;28;20289;-52
2024/03/24 10:32:47;;;;;;;0.70;0.50;;;;;;;8.30;55.77;96786.75;6302066;28;20225;-55
2024/03/24 10:35:49;;;;;;;0.37;0.30;;;;;;;8.36;58.67;96770.66;6297176;28;20182;-56
2024/03/24 10:38:50;;;;;;;0.20;0.20;;;;;;;8.90;57.00;96767.97;6306031;28;20181;-55
2024/03/24 10:41:55;;;;;;;0.30;0.30;;;;;;;8.73;55.08;96764.66;6301467;28;20198;-57
2024/03/24 10:45:09;;;;;;;0.40;0.30;;;;;;;8.57;57.34;96752.28;6299015;28;20605;-58
2024/03/24 10:48:19;;;;;;;0.30;0.30;;;;;;;8.05;58.07;96742.16;6299840;28;20268;-57
2024/03/24 10:51:25;;;;;;;1.03;0.30;;;;;;;8.04;58.88;96783.81;6282730;28;20198;-56
2024/03/24 10:54:34;;;;;;;0.40;0.40;;;;;;;7.59;64.45;96784.84;6300435;28;20248;-55
2024/03/24 10:57:42;;;;;;;0.30;0.30;;;;;;;7.43;62.20;96778.50;6298556;28;20190;-57
2024/03/24 11:00:46;;;;;;;0.40;0.40;;;;;;;7.56;64.37;96774.72;6296320;28;20186;-56
2024/03/24 11:04:01;;;;;;;0.23;0.23;;;;;;;7.30;62.25;96762.97;6306320;28;20205;-55
2024/03/24 11:07:07;;;;;;;0.30;0.27;;;;;;;7.39;65.25;96788.00;6306498;28;20273;-57
2024/03/24 11:10:08;;;;;;;0.60;0.30;;;;;;;6.82;64.78;96788.16;6299563;28;20200;-57
2024/03/24 11:13:13;;;;;;;0.30;0.30;;;;;;;6.71;71.71;96781.09;6287043;28;20201;-56
2024/03/24 11:16:18;;;;;;;0.30;0.30;;;;;;;6.46;70.61;96789.41;6287963;28;20189;-56
2024/03/24 11:19:32;;;;;;;0.40;0.30;;;;;;;6.17;73.01;96797.31;6292296;28;20237;-56
2024/03/24 11:22:42;;;;;;;0.37;0.27;;;;;;;6.40;75.33;96748.00;6290570;28;20549;-56
2024/03/24 11:25:49;;;;;;;2.10;0.70;;;;;;;6.79;71.07;96766.66;6297448;28;20195;-56
2024/03/24 11:28:52;;;;;;;0.20;0.20;;;;;;;6.79;69.31;96778.03;6292330;28;20661;-56
2024/03/24 11:31:55;;;;;;;0.80;0.50;;;;;;;6.35;73.33;96756.66;6289090;28;20198;-56
2024/03/24 11:34:59;;;;;;;1.10;0.40;;;;;;;6.82;76.73;96750.31;6295188;28;20205;-55
2024/03/24 11:38:12;;;;;;;0.50;0.50;;;;;;;7.04;71.70;96753.00;6292170;28;20543;-57
2024/03/24 11:41:16;;;;;;;0.20;0.20;;;;;;;6.83;69.99;96718.28;6275194;28;20214;-53
2024/03/24 11:44:19;;;;;;;0.83;0.30;;;;;;;6.66;70.69;96709.56;6294227;28;20493;-54
2024/03/24 11:47:27;;;;;;;0.40;0.30;;;;;;;7.09;70.39;96738.00;6295741;28;20233;-57
2024/03/24 11:50:30;;;;;;;0.23;0.23;;;;;;;7.45;70.24;96743.81;6298638;28;20918;-56
2024/03/24 11:53:31;;;;;;;0.20;0.20;;;;;;;7.58;68.67;96738.16;6296599;28;20217;-57
2024/03/24 11:56:34;;;;;;;0.40;0.27;;;;;;;7.47;65.35;96776.97;6296659;28;20198;-55
2024/03/24 11:59:39;;;;;;;0.20;0.20;;;;;;;7.40;61.63;96762.31;6297048;28;20209;-57
2024/03/24 12:02:41;;;;;;;0.20;0.20;;;;;;;7.70;63.60;96730.09;6295323;28;20187;-56
2024/03/24 12:05:50;;;;;;;2.33;0.20;;;;;;;7.97;64.38;96728.28;6299488;28;20186;-54
2024/03/24 12:08:53;;;;;;;1.17;0.20;;;;;;;8.24;61.27;96724.88;6286044;28;20530;-56
2024/03/24 12:12:06;;;;;;;0.20;0.20;;;;;;;8.10;62.01;96724.47;6298459;28;20239;-57
2024/03/24 12:15:18;;;;;;;0.20;0.20;;;;;;;7.43;64.87;96730.00;6294217;28;20647;-57
2024/03/24 12:18:25;;;;;;;0.47;0.47;;;;;;;7.35;61.29;96711.91;6303557;28;20214;-55
2024/03/24 12:21:30;;;;;;;0.33;0.30;;;;;;;7.79;62.58;96728.63;6291586;28;20599;-55
2024/03/24 12:24:31;;;;;;;0.30;0.30;;;;;;;7.73;58.50;96705.72;6296694;28;20294;-56
2024/03/24 12:27:33;;;;;;;0.33;0.33;;;;;;;7.73;61.44;96714.50;6295671;28;20190;-57
2024/03/24 12:30:34;;;;;;;0.20;0.20;;;;;;;7.91;57.91;96716.03;6293727;28;20230;-55
2024/03/24 12:33:37;;;;;;;0.20;0.20;;;;;;;7.70;57.84;96674.44;6284382;28;20295;-54
2024/03/24 12:36:38;;;;;;;0.20;0.20;;;;;;;7.79;62.28;96727.81;6295670;28;20194;-57
2024/03/24 12:39:39;;;;;;;0.60;0.37;;;;;;;7.26;72.72;96753.09;6294822;28;20193;-61
2024/03/24 12:42:40;;;;;;;0.60;0.50;;;;;;;6.08;87.13;96743.22;6295970;28;20333;-56
2024/03/24 12:45:52;;;;;;;0.53;0.40;;;;;;;6.19;85.62;96715.09;6298500;28;20553;-56
2024/03/24 12:48:53;;;;;;;1.13;0.50;;;;;;;6.13;82.61;96721.34;6293317;28;20727;-57
2024/03/24 12:51:55;;;;;;;0.40;0.40;;;;;;;6.34;83.81;96710.09;6292452;28;20202;-57
2024/03/24 12:54:56;;;;;;;0.80;0.50;;;;;;;6.45;84.25;96714.53;6290839;28;20215;-57
2024/03/24 12:58:00;;;;;;;0.40;0.40;;;;;;;6.54;78.39;96701.69;6291489;28;20860;-57
2024/03/24 13:01:03;;;;;;;0.30;0.30;;;;;;;6.62;78.29;96700.50;6293453;28;20185;-55
2024/03/24 13:04:04;;;;;;;0.40;0.40;;;;;;;6.92;77.35;96677.13;6288687;28;20207;-56
2024/03/24 13:07:06;;;;;;;0.33;0.33;;;;;;;7.33;76.35;96693.56;6277161;28;20674;-56
2024/03/24 13:10:08;;;;;;;0.40;0.40;;;;;;;7.26;69.42;96685.03;6300133;28;20527;-57
2024/03/24 13:13:09;;;;;;;0.30;0.20;;;;;;;7.45;66.63;96673.09;6294627;28;20210;-55
2024/03/24 13:16:18;;;;;;;0.17;0.17;;;;;;;7.48;67.14;96669.91;6297231;28;20242;-54
2024/03/24 13:19:21;;;;;;;0.30;0.30;;;;;;;7.60;61.83;96672.47;6297548;28;20652;-55
2024/03/24 13:22:23;;;;;;;0.20;0.20;;;;;;;7.76;59.20;96673.44;6300935;28;20190;-56
2024/03/24 13:25:24;;;;;;;0.47;0.20;;;;;;;7.98;58.83;96657.50;6302811;28;20242;-55
2024/03/24 13:28:25;;;;;;;0.23;0.10;;;;;;;8.14;59.19;96666.41;6297172;28;20853;-56
2024/03/24 13:31:26;;;;;;;0.20;0.20;;;;;;;8.35;57.18;96670.84;6293963;28;20561;-55
2024/03/24 13:34:30;;;;;;;0.57;0.20;;;;;;;8.61;54.41;96658.59;6273406;28;20207;-56
2024/03/24 13:37:40;;;;;;;0.27;0.27;;;;;;;8.56;56.99;96663.88;6293583;28;20670;-54
2024/03/24 13:41:10;;;;;;;0.20;0.20;;;;;;;8.42;50.39;96657.38;6295448;28;20195;-54
2024/03/24 13:44:46;;;;;;;8.03;0.93;;;;;;;8.05;52.97;96663.41;6275129;28;20190;-52
2024/03/24 13:48:07;;;;;;;1.40;0.40;;;;;;;8.43;54.05;96659.81;6303566;28;20206;-54
2024/03/24 13:51:10;;;;;;;1.60;0.30;;;;;;;8.26;52.10;96681.09;6290713;28;20202;-53
2024/03/24 13:54:13;;;;;;;2.53;0.20;;;;;;;7.79;55.51;96667.66;6301398;28;20736;-54
2024/03/24 13:57:15;;;;;;;0.60;0.23;;;;;;;7.66;57.36;96679.41;6296043;28;20204;-53
2024/03/24 14:00:16;;;;;;;0.30;0.30;;;;;;;7.90;59.65;96685.25;6292966;28;20202;-53
2024/03/24 14:03:18;;;;;;;0.97;0.20;;;;;;;7.79;60.01;96645.63;6294865;28;20606;-55
2024/03/24 14:06:23;;;;;;;0.17;0.17;;;;;;;8.07;62.57;96666.59;6293873;28;20205;-55
2024/03/24 14:09:24;;;;;;;0.23;0.20;;;;;;;7.95;63.75;96677.34;6292946;28;20191;-54
2024/03/24 14:12:35;;;;;;;0.20;0.20;;;;;;;7.62;63.46;96672.22;6294591;28;20198;-53
2024/03/24 14:16:07;;;;;;;0.20;0.20;;;;;;;7.49;62.88;96698.03;6303236;28;20182;-55
2024/03/24 14:19:35;;;;;;;0.20;0.20;;;;;;;7.08;64.02;96659.59;6277906;28;20234;-54
2024/03/24 14:22:44;;;;;;;0.40;0.20;;;;;;;7.07;63.97;96676.56;6296598;28;20555;-53
2024/03/24 14:25:46;;;;;;;0.30;0.30;;;;;;;6.87;62.72;96649.78;6294515;28;20191;-53
2024/03/24 14:28:48;;;;;;;0.47;0.30;;;;;;;7.03;61.66;96661.38;6293889;28;20193;-56
2024/03/24 14:31:50;;;;;;;0.23;0.20;;;;;;;7.05;62.30;96665.41;6291785;28;20191;-53
2024/03/24 14:34:51;;;;;;;0.83;0.20;;;;;;;7.14;59.26;96648.06;6291412;28;20214;-56